Time;durP1;ratioP1;P1;durP2;ratioP2;P2;SDS_P1;SDS_P2;PMS_P1;PMS_P2;Temp;Humidity;BMP_temperature;BMP_pressure;BME280_temperature;BME280_humidity;BME280_pressure;Samples;Min_cycle;Max_cycle;Signal;HPM_P1;HPM_P2
2022/09/17 00:00:59;;;;;;;2.42;0.95;;;;;;;;;;5050206;28;20036;-62
2022/09/17 00:03:25;;;;;;;2.20;1.38;;;;;;;;;;5050124;28;20475;-63
2022/09/17 00:06:01;;;;;;;6.32;0.98;;;;;;;;;;5049320;28;20055;-63
2022/09/17 00:08:27;;;;;;;3.03;1.38;;;;;;;;;;5050369;28;20036;-62
2022/09/17 00:10:52;;;;;;;6.85;1.30;;;;;;;;;;5050155;28;20100;-63
2022/09/17 00:13:18;;;;;;;5.05;1.90;;;;;;;;;;5050435;28;20037;-62
2022/09/17 00:15:45;;;;;;;12.48;4.43;;;;;;;;;;5048116;28;20090;-63
2022/09/17 00:18:11;;;;;;;9.85;5.05;;;;;;;;;;5049595;28;20140;-63
2022/09/17 00:20:42;;;;;;;17.40;6.18;;;;;;;;;;5048128;28;20124;-63
2022/09/17 00:23:08;;;;;;;13.10;4.40;;;;;;;;;;5049293;28;20041;-63
2022/09/17 00:25:37;;;;;;;14.13;3.67;;;;;;;;;;5049440;28;20065;-62
2022/09/17 00:28:02;;;;;;;8.77;3.72;;;;;;;;;;5049284;28;20151;-63
2022/09/17 00:30:27;;;;;;;9.80;3.38;;;;;;;;;;5050544;28;20013;-62
2022/09/17 00:32:52;;;;;;;10.73;2.30;;;;;;;;;;5049936;28;20083;-62
2022/09/17 00:35:18;;;;;;;7.80;1.85;;;;;;;;;;5049533;28;20041;-62
2022/09/17 00:37:43;;;;;;;5.75;1.55;;;;;;;;;;5049271;28;20040;-63
2022/09/17 00:40:09;;;;;;;2.38;1.00;;;;;;;;;;5049781;28;20048;-63
2022/09/17 00:42:34;;;;;;;3.67;1.20;;;;;;;;;;5049393;28;20025;-63
2022/09/17 00:45:00;;;;;;;4.13;1.15;;;;;;;;;;5048709;28;20037;-63
2022/09/17 00:47:42;;;;;;;6.50;1.15;;;;;;;;;;5049485;28;20094;-62
2022/09/17 00:50:24;;;;;;;2.10;0.55;;;;;;;;;;5048109;28;20037;-62
2022/09/17 00:52:55;;;;;;;4.10;0.68;;;;;;;;;;5049267;28;20041;-62
2022/09/17 00:55:30;;;;;;;3.58;0.80;;;;;;;;;;5049806;28;20039;-62
2022/09/17 00:58:00;;;;;;;2.25;0.80;;;;;;;;;;5031790;28;20526;-63
2022/09/17 01:00:27;;;;;;;1.05;0.52;;;;;;;;;;5029635;28;20040;-63
2022/09/17 01:02:53;;;;;;;5.47;0.70;;;;;;;;;;5029384;28;20048;-63
2022/09/17 01:05:31;;;;;;;3.80;0.75;;;;;;;;;;5040644;28;20033;-62
2022/09/17 01:08:11;;;;;;;2.22;0.90;;;;;;;;;;5049205;28;20039;-63
2022/09/17 01:10:48;;;;;;;2.42;0.60;;;;;;;;;;5049169;28;20124;-62
2022/09/17 01:13:38;;;;;;;3.97;0.90;;;;;;;;;;5049456;28;20044;-63
2022/09/17 01:16:18;;;;;;;5.05;0.82;;;;;;;;;;5049484;28;20045;-62
2022/09/17 01:19:24;;;;;;;2.22;0.80;;;;;;;;;;5061006;28;20510;-62
2022/09/17 01:22:17;;;;;;;3.30;0.50;;;;;;;;;;5064369;28;20067;-63
2022/09/17 01:25:01;;;;;;;8.63;0.50;;;;;;;;;;5047370;28;20033;-62
2022/09/17 01:28:04;;;;;;;1.65;0.77;;;;;;;;;;5047131;28;20489;-63
2022/09/17 01:30:35;;;;;;;1.77;0.75;;;;;;;;;;5048907;28;20041;-63
2022/09/17 01:33:22;;;;;;;3.72;1.10;;;;;;;;;;5048687;28;20036;-63
2022/09/17 01:35:54;;;;;;;3.83;0.73;;;;;;;;;;5048531;28;20116;-63
2022/09/17 01:38:32;;;;;;;2.90;0.90;;;;;;;;;;5048975;28;20542;-62
2022/09/17 01:41:06;;;;;;;1.17;0.60;;;;;;;;;;5047835;28;20033;-63
2022/09/17 01:43:31;;;;;;;0.88;0.60;;;;;;;;;;5044362;28;20033;-63
2022/09/17 01:46:19;;;;;;;0.75;0.52;;;;;;;;;;5047687;28;20025;-63
2022/09/17 01:48:49;;;;;;;0.45;0.40;;;;;;;;;;5048796;28;20025;-62
2022/09/17 01:51:19;;;;;;;0.50;0.50;;;;;;;;;;5048421;28;20416;-62
2022/09/17 01:54:29;;;;;;;3.45;0.93;;;;;;;;;;5048222;28;20064;-63
2022/09/17 01:57:03;;;;;;;3.80;0.50;;;;;;;;;;5051349;28;20128;-63
2022/09/17 01:59:36;;;;;;;4.63;0.68;;;;;;;;;;5044647;28;20442;-62
2022/09/17 02:02:11;;;;;;;2.50;0.85;;;;;;;;;;5048543;28;20044;-62
2022/09/17 02:04:43;;;;;;;3.13;0.57;;;;;;;;;;5047998;28;20029;-63
2022/09/17 02:07:16;;;;;;;4.73;0.70;;;;;;;;;;5046808;28;20399;-62
2022/09/17 02:09:46;;;;;;;3.92;0.68;;;;;;;;;;5047476;28;20024;-62
2022/09/17 02:12:18;;;;;;;2.05;0.85;;;;;;;;;;5048207;28;20037;-62
2022/09/17 02:14:53;;;;;;;1.05;0.73;;;;;;;;;;5046177;28;20029;-62
2022/09/17 02:17:44;;;;;;;6.75;0.70;;;;;;;;;;5048272;28;20037;-63
2022/09/17 02:20:10;;;;;;;10.13;1.42;;;;;;;;;;5047845;28;20033;-62
2022/09/17 02:22:48;;;;;;;2.40;1.08;;;;;;;;;;5046885;28;20094;-63
2022/09/17 02:25:20;;;;;;;8.48;1.85;;;;;;;;;;5043230;28;20041;-63
2022/09/17 02:27:54;;;;;;;6.63;1.58;;;;;;;;;;5027985;28;20052;-62
2022/09/17 02:30:19;;;;;;;2.35;1.27;;;;;;;;;;5028526;28;20044;-63
2022/09/17 02:32:45;;;;;;;5.55;1.35;;;;;;;;;;5027913;28;20524;-62
2022/09/17 02:35:12;;;;;;;2.40;0.90;;;;;;;;;;5027693;28;20040;-63
2022/09/17 02:37:38;;;;;;;4.72;1.20;;;;;;;;;;5026403;28;20029;-62
2022/09/17 02:40:05;;;;;;;5.75;1.40;;;;;;;;;;5027323;28;20059;-62
2022/09/17 02:43:13;;;;;;;3.65;1.05;;;;;;;;;;5024251;28;20076;-63
2022/09/17 02:46:00;;;;;;;10.35;1.40;;;;;;;;;;5035362;28;20088;-62
2022/09/17 02:48:31;;;;;;;3.08;0.80;;;;;;;;;;5046935;28;20025;-62
2022/09/17 02:51:05;;;;;;;8.00;1.35;;;;;;;;;;5047552;28;20057;-62
2022/09/17 02:53:55;;;;;;;6.88;1.02;;;;;;;;;;5051430;28;20056;-63
2022/09/17 02:56:39;;;;;;;6.07;1.55;;;;;;;;;;5032895;28;20076;-63
2022/09/17 02:59:08;;;;;;;4.22;1.15;;;;;;;;;;5031508;28;20060;-62
2022/09/17 03:02:23;;;;;;;3.25;0.82;;;;;;;;;;5033428;28;20061;-63
2022/09/17 03:04:49;;;;;;;1.98;0.75;;;;;;;;;;5011807;28;20072;-62
2022/09/17 03:07:16;;;;;;;8.82;1.70;;;;;;;;;;5031202;28;20065;-62
2022/09/17 03:09:42;;;;;;;5.80;1.65;;;;;;;;;;5032134;28;20029;-62
2022/09/17 03:12:09;;;;;;;8.55;1.15;;;;;;;;;;5031649;28;20396;-62
2022/09/17 03:14:34;;;;;;;8.45;1.10;;;;;;;;;;5031143;28;20041;-63
2022/09/17 03:16:59;;;;;;;4.88;1.00;;;;;;;;;;5031446;28;20098;-62
2022/09/17 03:19:26;;;;;;;2.80;1.13;;;;;;;;;;5031919;28;20037;-62
2022/09/17 03:21:52;;;;;;;6.97;1.30;;;;;;;;;;5030555;28;20042;-62
2022/09/17 03:24:17;;;;;;;15.02;1.42;;;;;;;;;;5032036;28;20029;-62
2022/09/17 03:26:43;;;;;;;7.72;1.58;;;;;;;;;;5033405;28;20687;-62
2022/09/17 03:29:08;;;;;;;9.15;1.27;;;;;;;;;;5042680;28;20505;-63
2022/09/17 03:31:33;;;;;;;5.78;1.50;;;;;;;;;;5061032;28;20386;-62
2022/09/17 03:33:59;;;;;;;10.57;1.25;;;;;;;;;;5051089;28;20468;-62
2022/09/17 03:36:24;;;;;;;8.50;1.40;;;;;;;;;;5051062;28;20033;-62
2022/09/17 03:38:54;;;;;;;8.57;1.52;;;;;;;;;;5050873;28;20061;-62
2022/09/17 03:41:19;;;;;;;5.25;1.52;;;;;;;;;;5050142;28;20528;-62
2022/09/17 03:43:44;;;;;;;6.53;1.00;;;;;;;;;;5050616;28;20037;-62
2022/09/17 03:46:10;;;;;;;6.40;1.10;;;;;;;;;;5054187;28;20067;-63
2022/09/17 03:48:36;;;;;;;12.68;1.42;;;;;;;;;;5071163;28;20567;-62
2022/09/17 03:51:01;;;;;;;4.07;1.63;;;;;;;;;;5070451;28;20056;-62
2022/09/17 03:53:27;;;;;;;7.95;1.00;;;;;;;;;;5070616;28;20169;-62
2022/09/17 03:55:52;;;;;;;10.43;1.10;;;;;;;;;;5070167;28;20036;-62
2022/09/17 03:58:17;;;;;;;7.47;1.42;;;;;;;;;;5050228;28;20048;-62
2022/09/17 04:00:43;;;;;;;10.77;1.15;;;;;;;;;;5048620;28;20036;-62
2022/09/17 04:03:08;;;;;;;3.40;1.20;;;;;;;;;;5050343;28;20045;-63
2022/09/17 04:05:33;;;;;;;3.53;1.10;;;;;;;;;;5035455;28;20044;-63
2022/09/17 04:07:59;;;;;;;9.43;1.75;;;;;;;;;;5051173;28;20065;-62
2022/09/17 04:10:24;;;;;;;23.05;1.40;;;;;;;;;;5029930;28;20589;-62
2022/09/17 04:12:50;;;;;;;5.20;1.02;;;;;;;;;;5030814;28;20025;-62
2022/09/17 04:15:15;;;;;;;10.45;1.65;;;;;;;;;;5030184;28;20044;-63
2022/09/17 04:17:40;;;;;;;3.60;1.33;;;;;;;;;;5030422;28;20041;-62
2022/09/17 04:20:06;;;;;;;8.85;1.42;;;;;;;;;;5028501;28;20056;-62
2022/09/17 04:22:31;;;;;;;7.47;1.40;;;;;;;;;;5029666;28;20129;-62
2022/09/17 04:24:57;;;;;;;6.18;1.55;;;;;;;;;;5030394;28;20028;-63
2022/09/17 04:27:23;;;;;;;5.80;1.20;;;;;;;;;;5029941;28;20033;-62
2022/09/17 04:29:48;;;;;;;5.07;1.48;;;;;;;;;;5030054;28;20124;-63
2022/09/17 04:32:13;;;;;;;9.95;1.52;;;;;;;;;;5028838;28;20107;-62
2022/09/17 04:34:39;;;;;;;2.35;0.88;;;;;;;;;;5026592;28;20037;-62
2022/09/17 04:37:04;;;;;;;4.95;1.50;;;;;;;;;;5030330;28;20088;-62
2022/09/17 04:39:29;;;;;;;5.65;1.75;;;;;;;;;;5030095;28;20034;-62
2022/09/17 04:41:55;;;;;;;4.30;1.15;;;;;;;;;;5028384;28;20514;-62
2022/09/17 04:44:20;;;;;;;8.60;1.63;;;;;;;;;;5027636;28;20120;-62
2022/09/17 04:46:45;;;;;;;7.72;1.63;;;;;;;;;;5030164;28;20044;-62
2022/09/17 04:49:11;;;;;;;4.10;1.10;;;;;;;;;;5028611;28;20059;-63
2022/09/17 04:51:36;;;;;;;3.80;1.38;;;;;;;;;;5028960;28;20143;-62
2022/09/17 04:54:02;;;;;;;6.28;1.25;;;;;;;;;;5029497;28;20565;-62
2022/09/17 04:56:27;;;;;;;6.53;1.70;;;;;;;;;;5029689;28;20037;-62
2022/09/17 04:58:52;;;;;;;11.70;1.73;;;;;;;;;;5029637;28;20418;-63
2022/09/17 05:01:17;;;;;;;8.27;1.65;;;;;;;;;;5029670;28;20037;-62
2022/09/17 05:03:44;;;;;;;3.42;1.20;;;;;;;;;;5029138;28;20057;-63
2022/09/17 05:06:09;;;;;;;3.70;1.10;;;;;;;;;;5029575;28;20120;-62
2022/09/17 05:08:35;;;;;;;13.43;2.05;;;;;;;;;;5029108;28;20459;-63
2022/09/17 05:11:00;;;;;;;13.40;1.60;;;;;;;;;;5029667;28;20579;-62
2022/09/17 05:13:26;;;;;;;7.50;1.40;;;;;;;;;;5028986;28;20090;-62
2022/09/17 05:15:55;;;;;;;7.68;1.85;;;;;;;;;;5029531;28;20021;-62
2022/09/17 05:18:20;;;;;;;5.80;1.15;;;;;;;;;;5044706;28;20022;-62
2022/09/17 05:20:46;;;;;;;10.75;1.15;;;;;;;;;;5026924;28;20036;-62
2022/09/17 05:23:11;;;;;;;7.07;1.27;;;;;;;;;;5029427;28;20072;-63
2022/09/17 05:25:36;;;;;;;5.85;1.15;;;;;;;;;;5028418;28;20026;-62
2022/09/17 05:28:01;;;;;;;12.07;1.33;;;;;;;;;;5028959;28;20048;-62
2022/09/17 05:30:27;;;;;;;6.75;1.13;;;;;;;;;;5029841;28;20025;-62
2022/09/17 05:33:00;;;;;;;7.45;1.40;;;;;;;;;;5028426;28;20079;-62
2022/09/17 05:35:25;;;;;;;7.47;1.40;;;;;;;;;;5032566;28;20041;-62
2022/09/17 05:37:50;;;;;;;6.65;1.17;;;;;;;;;;5026198;28;20037;-62
2022/09/17 05:40:16;;;;;;;6.85;1.38;;;;;;;;;;5028340;28;20091;-62
2022/09/17 05:42:41;;;;;;;6.50;0.95;;;;;;;;;;5028411;28;20022;-62
2022/09/17 05:45:07;;;;;;;3.53;1.05;;;;;;;;;;5028353;28;20041;-62
2022/09/17 05:47:34;;;;;;;4.68;2.83;;;;;;;;;;5028837;28;20046;-62
2022/09/17 05:49:59;;;;;;;5.95;1.27;;;;;;;;;;5028297;28;20033;-62
2022/09/17 05:52:28;;;;;;;3.72;1.17;;;;;;;;;;5027435;28;20034;-62
2022/09/17 05:54:54;;;;;;;9.73;1.40;;;;;;;;;;5028004;28;20022;-62
2022/09/17 05:57:20;;;;;;;7.28;1.40;;;;;;;;;;5029040;28;20530;-62
2022/09/17 05:59:45;;;;;;;8.30;1.30;;;;;;;;;;5027817;28;20042;-62
2022/09/17 06:02:12;;;;;;;7.82;1.70;;;;;;;;;;5032306;28;20678;-62
2022/09/17 06:04:37;;;;;;;8.55;1.60;;;;;;;;;;5023827;28;20030;-62
2022/09/17 06:07:08;;;;;;;12.85;1.52;;;;;;;;;;5026395;28;20460;-62
2022/09/17 06:09:36;;;;;;;7.45;1.30;;;;;;;;;;5027881;28;20029;-63
2022/09/17 06:12:06;;;;;;;6.03;1.08;;;;;;;;;;5026986;28;20026;-62
2022/09/17 06:14:31;;;;;;;9.98;1.45;;;;;;;;;;5015608;28;20029;-62
2022/09/17 06:16:56;;;;;;;9.48;1.80;;;;;;;;;;5026490;28;20048;-62
2022/09/17 06:19:22;;;;;;;13.30;1.60;;;;;;;;;;5020478;28;20041;-63
2022/09/17 06:21:49;;;;;;;4.55;1.23;;;;;;;;;;5027562;28;20026;-62
2022/09/17 06:24:15;;;;;;;7.20;1.30;;;;;;;;;;5045421;28;20664;-62
2022/09/17 06:26:40;;;;;;;5.68;1.15;;;;;;;;;;5028866;28;20580;-62
2022/09/17 06:29:05;;;;;;;8.45;2.60;;;;;;;;;;5028072;28;20068;-62
2022/09/17 06:31:31;;;;;;;13.25;1.65;;;;;;;;;;5027293;28;20025;-63
2022/09/17 06:33:56;;;;;;;12.05;1.70;;;;;;;;;;5027651;28;20028;-62
2022/09/17 06:36:21;;;;;;;5.70;1.55;;;;;;;;;;5027027;28;20398;-62
2022/09/17 06:38:47;;;;;;;12.73;1.63;;;;;;;;;;5029924;28;20888;-62
2022/09/17 06:41:13;;;;;;;6.72;1.45;;;;;;;;;;5036951;28;20587;-62
2022/09/17 06:43:40;;;;;;;38.72;26.27;;;;;;;;;;5043948;28;20596;-63
2022/09/17 06:46:07;;;;;;;7.05;1.45;;;;;;;;;;5045631;28;20040;-62
2022/09/17 06:48:34;;;;;;;8.20;1.40;;;;;;;;;;5046694;28;20398;-62
2022/09/17 06:51:05;;;;;;;5.20;1.73;;;;;;;;;;5041263;28;20029;-62
2022/09/17 06:53:30;;;;;;;8.63;1.70;;;;;;;;;;5041625;28;20091;-62
2022/09/17 06:55:57;;;;;;;10.07;1.70;;;;;;;;;;5044603;28;20041;-62
2022/09/17 06:58:23;;;;;;;8.05;1.40;;;;;;;;;;5025564;28;20033;-62
2022/09/17 07:00:49;;;;;;;7.30;1.52;;;;;;;;;;5035759;28;20033;-62
2022/09/17 07:03:14;;;;;;;10.80;1.42;;;;;;;;;;5041986;28;20025;-62
2022/09/17 07:05:42;;;;;;;6.93;1.42;;;;;;;;;;5041649;28;20102;-62
2022/09/17 07:08:09;;;;;;;9.45;1.65;;;;;;;;;;5037646;28;20033;-62
2022/09/17 07:10:35;;;;;;;8.23;1.60;;;;;;;;;;5044170;28;20055;-62
2022/09/17 07:13:00;;;;;;;7.00;1.52;;;;;;;;;;5045694;28;20029;-62
2022/09/17 07:15:26;;;;;;;4.47;1.42;;;;;;;;;;5043602;28;20023;-62
2022/09/17 07:17:52;;;;;;;7.63;1.58;;;;;;;;;;5039574;28;20035;-62
2022/09/17 07:20:17;;;;;;;8.68;1.88;;;;;;;;;;5046296;28;20109;-62
2022/09/17 07:22:42;;;;;;;6.35;1.20;;;;;;;;;;5040431;28;20073;-62
2022/09/17 07:25:08;;;;;;;8.25;1.65;;;;;;;;;;5043671;28;20098;-62
2022/09/17 07:27:34;;;;;;;7.45;1.65;;;;;;;;;;5043014;28;20025;-62
2022/09/17 07:29:59;;;;;;;5.65;2.05;;;;;;;;;;5043982;28;20114;-62
2022/09/17 07:32:24;;;;;;;8.60;1.30;;;;;;;;;;5038476;28;20143;-62
2022/09/17 07:34:50;;;;;;;10.25;1.67;;;;;;;;;;5039101;28;20032;-62
2022/09/17 07:37:16;;;;;;;5.75;1.50;;;;;;;;;;5031084;28;20041;-62
2022/09/17 07:39:42;;;;;;;7.25;1.45;;;;;;;;;;5031207;28;20846;-62
2022/09/17 07:42:08;;;;;;;10.27;2.33;;;;;;;;;;5041674;28;20041;-62
2022/09/17 07:44:33;;;;;;;9.10;1.95;;;;;;;;;;5040400;28;20119;-62
2022/09/17 07:46:59;;;;;;;9.93;2.20;;;;;;;;;;5046476;28;20592;-62
2022/09/17 07:49:25;;;;;;;6.80;1.85;;;;;;;;;;5043374;28;20079;-62
2022/09/17 07:51:50;;;;;;;13.77;2.13;;;;;;;;;;5037872;28;20029;-62
2022/09/17 07:54:15;;;;;;;9.63;2.25;;;;;;;;;;5036907;28;20052;-62
2022/09/17 07:56:41;;;;;;;7.78;2.35;;;;;;;;;;5049062;28;20488;-62
2022/09/17 07:59:07;;;;;;;10.77;3.22;;;;;;;;;;5037237;28;20040;-63
2022/09/17 08:01:33;;;;;;;6.32;2.00;;;;;;;;;;5027471;28;20106;-62
2022/09/17 08:03:59;;;;;;;5.38;1.90;;;;;;;;;;5062807;28;20040;-62
2022/09/17 08:06:26;;;;;;;9.95;2.00;;;;;;;;;;5050127;28;20020;-63
2022/09/17 08:08:53;;;;;;;9.13;2.30;;;;;;;;;;5043088;28;20037;-62
2022/09/17 08:11:24;;;;;;;8.40;2.28;;;;;;;;;;5024024;28;20061;-62
2022/09/17 08:13:50;;;;;;;8.27;1.90;;;;;;;;;;5028931;28;20049;-63
2022/09/17 08:16:16;;;;;;;11.60;2.40;;;;;;;;;;5032842;28;20036;-62
2022/09/17 08:18:43;;;;;;;9.30;2.10;;;;;;;;;;5046776;28;20040;-62
2022/09/17 08:21:11;;;;;;;7.25;2.10;;;;;;;;;;5044394;28;20045;-62
2022/09/17 08:23:38;;;;;;;6.78;2.30;;;;;;;;;;5027195;28;20037;-62
2022/09/17 08:26:05;;;;;;;9.55;2.33;;;;;;;;;;5032115;28;20060;-62
2022/09/17 08:28:31;;;;;;;10.40;2.33;;;;;;;;;;5041482;28;20055;-62
2022/09/17 08:31:02;;;;;;;7.28;1.98;;;;;;;;;;5037925;28;20472;-62
2022/09/17 08:33:31;;;;;;;7.03;1.75;;;;;;;;;;5038931;28;20041;-62
2022/09/17 08:35:59;;;;;;;10.15;1.90;;;;;;;;;;5035144;28;20073;-62
2022/09/17 08:38:26;;;;;;;3.65;1.58;;;;;;;;;;5028518;28;20392;-62
2022/09/17 08:41:10;;;;;;;7.65;1.80;;;;;;;;;;5028098;28;20120;-62
2022/09/17 08:43:44;;;;;;;8.50;2.05;;;;;;;;;;5028141;28;20029;-62
2022/09/17 08:46:10;;;;;;;5.90;1.92;;;;;;;;;;5024693;28;20037;-62
2022/09/17 08:48:44;;;;;;;5.75;1.80;;;;;;;;;;5028046;28;20036;-62
2022/09/17 08:51:20;;;;;;;5.28;2.17;;;;;;;;;;5038692;28;20586;-62
2022/09/17 08:54:08;;;;;;;7.13;1.75;;;;;;;;;;5042271;28;20036;-62
2022/09/17 08:56:36;;;;;;;5.53;1.85;;;;;;;;;;5059878;28;20887;-62
2022/09/17 08:59:20;;;;;;;6.88;1.50;;;;;;;;;;5042693;28;20395;-62
2022/09/17 09:01:59;;;;;;;4.80;1.42;;;;;;;;;;5041254;28;20049;-62
2022/09/17 09:04:54;;;;;;;7.85;2.20;;;;;;;;;;5039011;28;20040;-62
2022/09/17 09:07:25;;;;;;;10.82;2.20;;;;;;;;;;5020366;28;20227;-62
2022/09/17 09:10:22;;;;;;;10.00;2.53;;;;;;;;;;5034290;28;20026;-62
2022/09/17 09:12:50;;;;;;;10.10;2.47;;;;;;;;;;5044319;28;20080;-62
2022/09/17 09:15:35;;;;;;;10.82;2.17;;;;;;;;;;5041670;28;20033;-62
2022/09/17 09:18:11;;;;;;;9.65;2.25;;;;;;;;;;5045691;28;20115;-62
2022/09/17 09:20:53;;;;;;;5.95;2.17;;;;;;;;;;5036234;28;20029;-62
2022/09/17 09:23:24;;;;;;;8.52;2.20;;;;;;;;;;5030973;28;20060;-62
2022/09/17 09:26:08;;;;;;;7.30;2.30;;;;;;;;;;5024316;28;20045;-62
2022/09/17 09:28:40;;;;;;;8.98;2.40;;;;;;;;;;5024664;28;20060;-62
2022/09/17 09:31:35;;;;;;;10.30;2.47;;;;;;;;;;5042678;28;20041;-62
2022/09/17 09:34:02;;;;;;;10.82;1.98;;;;;;;;;;5031432;28;20049;-62
2022/09/17 09:36:30;;;;;;;9.95;2.72;;;;;;;;;;5024369;28;20040;-62
2022/09/17 09:39:06;;;;;;;7.35;2.33;;;;;;;;;;5026956;28;20601;-62
2022/09/17 09:41:44;;;;;;;9.77;2.60;;;;;;;;;;5025606;28;20060;-62
2022/09/17 09:44:12;;;;;;;7.68;2.25;;;;;;;;;;5036483;28;20513;-62
2022/09/17 09:46:59;;;;;;;10.48;2.72;;;;;;;;;;5043667;28;20040;-62
2022/09/17 09:49:47;;;;;;;4.40;1.95;;;;;;;;;;5037201;28;20047;-62
2022/09/17 09:52:21;;;;;;;14.57;2.65;;;;;;;;;;5043082;28;20025;-62
2022/09/17 09:55:15;;;;;;;7.03;2.00;;;;;;;;;;5046285;28;20039;-62
2022/09/17 09:57:47;;;;;;;8.15;2.58;;;;;;;;;;5047395;28;20037;-62
2022/09/17 10:00:35;;;;;;;9.32;2.03;;;;;;;;;;5046481;28;20865;-62
2022/09/17 10:03:08;;;;;;;7.43;2.00;;;;;;;;;;5034196;28;20132;-63
2022/09/17 10:05:34;;;;;;;6.95;2.17;;;;;;;;;;5021923;28;20047;-62
2022/09/17 10:08:09;;;;;;;13.48;2.95;;;;;;;;;;5042386;28;20044;-62
2022/09/17 10:10:36;;;;;;;6.97;2.70;;;;;;;;;;5044850;28;20040;-63
2022/09/17 10:13:06;;;;;;;10.07;3.45;;;;;;;;;;5036875;28;20035;-62
2022/09/17 10:15:31;;;;;;;9.38;3.00;;;;;;;;;;5021955;28;20132;-62
2022/09/17 10:18:12;;;;;;;11.10;3.10;;;;;;;;;;5027494;28;20128;-62
2022/09/17 10:20:49;;;;;;;15.20;3.17;;;;;;;;;;5046688;28;20441;-62
2022/09/17 10:23:14;;;;;;;4.30;1.58;;;;;;;;;;5046804;28;20026;-62
2022/09/17 10:25:43;;;;;;;4.10;1.67;;;;;;;;;;5036762;28;20090;-62
2022/09/17 10:28:30;;;;;;;5.53;1.77;;;;;;;;;;5025557;28;20522;-62
2022/09/17 10:30:57;;;;;;;4.47;1.80;;;;;;;;;;5037694;28;20032;-62
2022/09/17 10:33:30;;;;;;;9.27;1.90;;;;;;;;;;5024223;28;20060;-62
2022/09/17 10:36:01;;;;;;;6.38;1.80;;;;;;;;;;5025182;28;20116;-62
2022/09/17 10:38:30;;;;;;;10.82;2.03;;;;;;;;;;5025979;28;20040;-62
2022/09/17 10:41:12;;;;;;;7.97;2.13;;;;;;;;;;5025402;28;20140;-62
2022/09/17 10:43:38;;;;;;;11.50;1.95;;;;;;;;;;5026469;28;20037;-62
2022/09/17 10:46:03;;;;;;;7.88;2.15;;;;;;;;;;5025047;28;20059;-62
2022/09/17 10:48:38;;;;;;;8.10;1.60;;;;;;;;;;5022695;28;20029;-62
2022/09/17 10:51:05;;;;;;;4.70;1.88;;;;;;;;;;5017024;28;20063;-63
2022/09/17 10:53:34;;;;;;;4.07;1.67;;;;;;;;;;5027201;28;20098;-62
2022/09/17 10:56:14;;;;;;;7.90;2.28;;;;;;;;;;5038157;28;20041;-62
2022/09/17 10:59:04;;;;;;;7.57;1.83;;;;;;;;;;5037760;28;20072;-62
2022/09/17 11:01:52;;;;;;;7.05;2.33;;;;;;;;;;5038394;28;20036;-62
2022/09/17 11:04:24;;;;;;;5.65;2.10;;;;;;;;;;5044264;28;20461;-62
2022/09/17 11:07:07;;;;;;;6.30;2.20;;;;;;;;;;5041503;28;20401;-62
2022/09/17 11:09:50;;;;;;;8.70;1.50;;;;;;;;;;5026212;28;20028;-62
2022/09/17 11:12:27;;;;;;;3.75;1.20;;;;;;;;;;5028516;28;20131;-62
2022/09/17 11:15:23;;;;;;;3.80;1.40;;;;;;;;;;5037480;28;20041;-62
2022/09/17 11:17:54;;;;;;;3.72;1.10;;;;;;;;;;5028481;28;22295;-62
2022/09/17 11:20:44;;;;;;;2.28;1.02;;;;;;;;;;5034667;28;20064;-62
2022/09/17 11:23:34;;;;;;;5.45;1.40;;;;;;;;;;5014109;28;20045;-62
2022/09/17 11:26:30;;;;;;;2.42;1.23;;;;;;;;;;5040614;28;20061;-62
2022/09/17 11:29:34;;;;;;;5.13;1.23;;;;;;;;;;5041001;28;20063;-62
2022/09/17 11:32:12;;;;;;;4.15;1.33;;;;;;;;;;5042101;28;20052;-62
2022/09/17 11:34:45;;;;;;;4.90;1.70;;;;;;;;;;5043950;28;20115;-62
2022/09/17 11:37:16;;;;;;;;;;;;;;;;;;5044908;28;20040;-62
2022/09/17 11:39:56;;;;;;;3.90;1.35;;;;;;;;;;5044658;28;19927;-62
2022/09/17 11:42:27;;;;;;;2.90;1.00;;;;;;;;;;5044970;28;20037;-62
2022/09/17 11:44:58;;;;;;;4.80;1.67;;;;;;;;;;5049603;28;20074;-62
2022/09/17 11:47:35;;;;;;;10.20;1.45;;;;;;;;;;5003026;28;20022;-62
2022/09/17 11:50:28;;;;;;;6.10;1.40;;;;;;;;;;5002519;28;20133;-62
2022/09/17 11:53:06;;;;;;;4.13;1.48;;;;;;;;;;5038923;28;20489;-62
2022/09/17 11:55:40;;;;;;;3.53;1.33;;;;;;;;;;5045896;28;20033;-62
2022/09/17 11:58:14;;;;;;;1.50;1.00;;;;;;;;;;5039979;28;20040;-62
2022/09/17 12:00:49;;;;;;;4.38;1.17;;;;;;;;;;5026321;28;20037;-62
2022/09/17 12:03:23;;;;;;;4.93;1.35;;;;;;;;;;5018134;28;20407;-62
2022/09/17 12:05:53;;;;;;;7.30;1.20;;;;;;;;;;5024076;28;20100;-62
2022/09/17 12:08:23;;;;;;;7.20;1.83;;;;;;;;;;5041858;28;20022;-62
2022/09/17 12:11:03;;;;;;;7.30;1.50;;;;;;;;;;5022898;28;20095;-62
2022/09/17 12:13:28;;;;;;;7.43;1.40;;;;;;;;;;5039936;28;20556;-62
2022/09/17 12:16:20;;;;;;;2.97;1.20;;;;;;;;;;5034483;28;20543;-62
2022/09/17 12:19:00;;;;;;;7.90;1.50;;;;;;;;;;5014762;28;20095;-62
2022/09/17 12:21:51;;;;;;;6.30;1.45;;;;;;;;;;5043695;28;20183;-62
2022/09/17 12:24:29;;;;;;;4.90;1.60;;;;;;;;;;5033053;28;20040;-62
2022/09/17 12:27:24;;;;;;;4.30;1.33;;;;;;;;;;5018814;28;20033;-62
2022/09/17 12:29:58;;;;;;;4.00;1.60;;;;;;;;;;5032082;28;20041;-62
2022/09/17 12:32:51;;;;;;;5.63;1.60;;;;;;;;;;5025809;28;20074;-62
2022/09/17 12:35:30;;;;;;;4.00;1.20;;;;;;;;;;5041171;28;20191;-62
2022/09/17 12:38:13;;;;;;;24.27;1.73;;;;;;;;;;5041861;28;20041;-62
2022/09/17 12:40:50;;;;;;;17.65;1.13;;;;;;;;;;5040054;28;20391;-61
2022/09/17 12:43:43;;;;;;;4.72;0.70;;;;;;;;;;5037970;28;20159;-61
2022/09/17 12:46:26;;;;;;;2.72;0.73;;;;;;;;;;5038514;28;20040;-62
2022/09/17 12:49:03;;;;;;;4.40;0.60;;;;;;;;;;5042398;28;20044;-60
2022/09/17 12:51:53;;;;;;;2.90;0.80;;;;;;;;;;5044566;28;20732;-61
2022/09/17 12:54:44;;;;;;;9.82;1.02;;;;;;;;;;5043326;28;20033;-60
2022/09/17 12:57:30;;;;;;;2.38;0.80;;;;;;;;;;5047977;28;20061;-60
2022/09/17 13:00:04;;;;;;;2.45;0.82;;;;;;;;;;5045679;28;20055;-60
2022/09/17 13:02:39;;;;;;;6.82;0.93;;;;;;;;;;5046422;28;20067;-61
2022/09/17 13:05:33;;;;;;;3.38;0.90;;;;;;;;;;5045640;28;20410;-60
2022/09/17 13:08:01;;;;;;;6.43;1.40;;;;;;;;;;5025228;28;20034;-60
2022/09/17 13:10:33;;;;;;;4.93;1.33;;;;;;;;;;5029183;28;21252;-60
2022/09/17 13:13:17;;;;;;;6.25;1.30;;;;;;;;;;5043331;28;20056;-61
2022/09/17 13:16:22;;;;;;;5.68;1.80;;;;;;;;;;5033342;28;20580;-60
2022/09/17 13:18:54;;;;;;;4.15;1.70;;;;;;;;;;5022710;28;20697;-61
2022/09/17 13:21:28;;;;;;;9.13;1.55;;;;;;;;;;5022565;28;20041;-61
2022/09/17 13:23:54;;;;;;;9.52;2.03;;;;;;;;;;5028543;28;20028;-60
2022/09/17 13:26:33;;;;;;;3.83;0.98;;;;;;;;;;5023089;28;20022;-61
2022/09/17 13:28:59;;;;;;;4.88;1.27;;;;;;;;;;5023175;28;20042;-60
2022/09/17 13:31:33;;;;;;;4.53;0.82;;;;;;;;;;5028575;28;20048;-59
2022/09/17 13:34:00;;;;;;;4.30;1.02;;;;;;;;;;5022842;28;20048;-60
2022/09/17 13:36:44;;;;;;;8.95;0.95;;;;;;;;;;5023486;28;20098;-61
2022/09/17 13:39:43;;;;;;;6.88;1.40;;;;;;;;;;5026495;28;20655;-60
2022/09/17 13:42:32;;;;;;;8.38;1.63;;;;;;;;;;5024389;28;20065;-60
2022/09/17 13:45:05;;;;;;;9.93;1.88;;;;;;;;;;5022376;28;20029;-60
2022/09/17 13:47:39;;;;;;;3.47;1.40;;;;;;;;;;5023161;28;20052;-60
2022/09/17 13:50:07;;;;;;;6.30;1.50;;;;;;;;;;5046161;28;20043;-61
2022/09/17 13:52:35;;;;;;;5.05;1.73;;;;;;;;;;5046045;28;20041;-60
2022/09/17 13:55:01;;;;;;;3.08;1.55;;;;;;;;;;5049060;28;20418;-60
2022/09/17 13:57:28;;;;;;;4.22;1.67;;;;;;;;;;5041319;28;20048;-60
2022/09/17 13:59:59;;;;;;;4.68;1.80;;;;;;;;;;5039498;28;20027;-59
2022/09/17 14:02:33;;;;;;;4.80;1.55;;;;;;;;;;5041907;28;20070;-60
2022/09/17 14:05:28;;;;;;;3.80;1.88;;;;;;;;;;5038800;28;20257;-60
2022/09/17 14:08:11;;;;;;;8.15;1.90;;;;;;;;;;5034426;28;20082;-60
2022/09/17 14:10:41;;;;;;;4.18;1.33;;;;;;;;;;5044904;28;20047;-61
2022/09/17 14:13:35;;;;;;;3.65;1.40;;;;;;;;;;5039485;28;20086;-60
2022/09/17 14:16:01;;;;;;;6.72;1.50;;;;;;;;;;5042307;28;20045;-61
2022/09/17 14:18:26;;;;;;;10.32;1.65;;;;;;;;;;5039066;28;20049;-60
2022/09/17 14:20:54;;;;;;;5.90;1.30;;;;;;;;;;5038530;28;20037;-60
2022/09/17 14:23:20;;;;;;;4.25;1.23;;;;;;;;;;5042678;28;20127;-60
2022/09/17 14:25:52;;;;;;;4.68;1.02;;;;;;;;;;5042624;28;20143;-61
2022/09/17 14:28:47;;;;;;;4.45;1.55;;;;;;;;;;5034942;28;20537;-61
2022/09/17 14:31:20;;;;;;;3.97;1.17;;;;;;;;;;5039014;28;20509;-60
2022/09/17 14:33:46;;;;;;;2.45;0.90;;;;;;;;;;5060318;28;20043;-61
2022/09/17 14:36:19;;;;;;;6.13;1.30;;;;;;;;;;5044875;28;20033;-60
2022/09/17 14:38:55;;;;;;;6.68;1.27;;;;;;;;;;5036462;28;20044;-60
2022/09/17 14:41:24;;;;;;;1.77;1.33;;;;;;;;;;5034612;28;20052;-60
2022/09/17 14:43:49;;;;;;;1.02;0.88;;;;;;;;;;5037414;28;20140;-60
2022/09/17 14:46:22;;;;;;;2.13;0.90;;;;;;;;;;5038723;28;20148;-61
2022/09/17 14:48:48;;;;;;;3.13;1.17;;;;;;;;;;5037945;28;20067;-61
2022/09/17 14:51:16;;;;;;;5.18;1.30;;;;;;;;;;5039472;28;20661;-60
2022/09/17 14:53:42;;;;;;;2.28;1.25;;;;;;;;;;5037924;28;20032;-60
2022/09/17 14:56:12;;;;;;;5.43;1.20;;;;;;;;;;5039970;28;20033;-60
2022/09/17 14:58:42;;;;;;;7.00;1.30;;;;;;;;;;5036128;28;20573;-60
2022/09/17 15:01:22;;;;;;;3.30;1.30;;;;;;;;;;5028388;28;20045;-61
2022/09/17 15:03:49;;;;;;;2.58;1.17;;;;;;;;;;5040953;28;20040;-61
2022/09/17 15:06:20;;;;;;;2.88;1.13;;;;;;;;;;5042006;28;20036;-60
2022/09/17 15:08:46;;;;;;;2.45;1.10;;;;;;;;;;5037645;28;20056;-60
2022/09/17 15:11:12;;;;;;;3.67;1.17;;;;;;;;;;5038639;28;20060;-60